WetterOnline ( https://www.wetteronline.de )

Wetter aktuell Waldmünchen

Aktuelles Wetter: Waldmünchen (499m)

6-stündlich | Neueste Meldungen
Ortszeit Temperatur Wetter
So, 20.10. 2:00 6.9° C bewölkt
Sa, 19.10. 20:00 10.1° C wolkig
Sa, 19.10. 14:00 13.8° C bedeckt
Sa, 19.10. 8:00 8.1° C bewölkt
Sa, 19.10. 2:00 6.8° C bewölkt
Fr, 18.10. 20:00 12.9° C bewölkt
Fr, 18.10. 14:00 16.9° C leicht bewölkt
Fr, 18.10. 8:00 7.0° C bedeckt
Ortszeit Temperatur Wetter
So, 20.10. 4:30 6.5° C leicht bewölkt
So, 20.10. 4:20 6.5° C leicht bewölkt
So, 20.10. 4:10 6.7° C bewölkt
So, 20.10. 4:00 6.2° C bedeckt
So, 20.10. 3:50 6.2° C bedeckt
So, 20.10. 3:40 6.5° C bedeckt
So, 20.10. 3:30 6.7° C bewölkt
So, 20.10. 3:00 6.4° C bewölkt
Ortszeit Relative Feuchte Sichtweite
So, 20.10. 2:00 98% 22 km
Sa, 19.10. 20:00 97% 50 km
Sa, 19.10. 14:00 73% 55 km
Sa, 19.10. 8:00 100% 20 km
Sa, 19.10. 2:00 99% 17 km
Fr, 18.10. 20:00 81% 70 km
Fr, 18.10. 14:00 63% 20 km
Fr, 18.10. 8:00 99% 19 km
Ortszeit Relative Feuchte Sichtweite
So, 20.10. 4:30 100% 9 km
So, 20.10. 4:20 100% -
So, 20.10. 4:10 100% -
So, 20.10. 4:00 100% 11 km
So, 20.10. 3:50 100% -
So, 20.10. 3:40 100% -
So, 20.10. 3:30 100% 15 km
So, 20.10. 3:00 99% 9 km
Ortszeit Niederschlagsmenge Niederschlagsart
So, 20.10. 2:00 0.1 l/m2 in 6 Std. -
Sa, 19.10. 20:00 0.4 l/m2 in 12 Std. Regen
Sa, 19.10. 14:00 0.0 l/m2 in 6 Std. -
Sa, 19.10. 8:00 0.1 l/m2 in 12 Std. Regen
Sa, 19.10. 2:00 0.0 l/m2 in 6 Std. -
Fr, 18.10. 20:00 0.3 l/m2 in 12 Std. Regen
Fr, 18.10. 14:00 0.2 l/m2 in 6 Std. Regen
Fr, 18.10. 8:00 0.1 l/m2 in 12 Std. Regen
Ortszeit Niederschlagsmenge Niederschlagsart
So, 20.10. 4:30 0.0 l/m2 in 1 Std. -
So, 20.10. 4:20 keine Meldung -
So, 20.10. 4:10 keine Meldung -
So, 20.10. 4:00 0.1 l/m2 in 1 Std. -
So, 20.10. 3:50 keine Meldung -
So, 20.10. 3:40 keine Meldung -
So, 20.10. 3:30 0.0 l/m2 in 1 Std. -
So, 20.10. 3:00 0.0 l/m2 in 1 Std. -
Ortszeit Stärke Spitze Richtung
km/h Bft. km/h Grad Sektor
So, 20.10. 2:00 4 1 18 110° O
Sa, 19.10. 20:00 0 0 29 - -
Sa, 19.10. 14:00 7 2 29 230° SW
Sa, 19.10. 8:00 6 1 11 100° O
Sa, 19.10. 2:00 4 1 11 100° O
Fr, 18.10. 20:00 6 1 39 220° SW
Fr, 18.10. 14:00 19 3 30 200° S
Fr, 18.10. 8:00 0 0 7 - -
Ortszeit Stärke Spitze Richtung
km/h Bft. km/h Grad Sektor
So, 20.10. 4:30 4 1 4 60° NO
So, 20.10. 4:20 4 1 - 60° NO
So, 20.10. 4:10 4 1 - 120° SO
So, 20.10. 4:00 6 1 7 70° O
So, 20.10. 3:50 6 1 - 70° O
So, 20.10. 3:40 7 2 - 110° O
So, 20.10. 3:30 4 1 7 60° NO
So, 20.10. 3:00 4 1 14 80° O
Ortszeit Untergrenze Bedeckung Gattung
total tief tief mittel hoch
So, 20.10. 2:00 4800 m 8/8 7/8 - - -
Sa, 19.10. 20:00 2700 m 7/8 1/8 - - -
Sa, 19.10. 14:00 1410 m 8/8 8/8 - - -
Sa, 19.10. 8:00 2700 m 8/8 4/8 - - -
Sa, 19.10. 2:00 1800 m 7/8 6/8 - - -
Fr, 18.10. 20:00 1800 m 7/8 7/8 - - -
Fr, 18.10. 14:00 9000 m 3/8 0/8 - - -
Fr, 18.10. 8:00 1140 m 8/8 8/8 - - -
Ortszeit Bedeckungsgrad in Achtel und Wolkenuntergrenze
So, 20.10. 4:30 3(4500m) 4(8700m)
So, 20.10. 4:20 3(4500m) 4(8700m)
So, 20.10. 4:10 7(4500m) 7(8700m) 7(9000m)
So, 20.10. 4:00 8(4200m) 8(9000m)
So, 20.10. 3:50 8(4200m) 8(9000m)
So, 20.10. 3:40 8(4200m) 8(8400m) 8(9000m)
So, 20.10. 3:30 6(3900m) 8(8100m) 8(9000m)
So, 20.10. 3:00 1(6300m) 7(6900m) 8(9000m)
Ortszeit Luftdruck NN (hPa) Tendenz (hPa in 3 Std.)
So, 20.10. 2:00 1013 - 0,6
Sa, 19.10. 20:00 1012 - 0,5
Sa, 19.10. 14:00 1013 + 1,0
Sa, 19.10. 8:00 1014 - 1,0
Sa, 19.10. 2:00 1015 + 0,2
Fr, 18.10. 20:00 1014 + 1,6
Fr, 18.10. 14:00 1012 - 1,7
Fr, 18.10. 8:00 1016 0,0
Ortszeit Luftdruck NN (hPa) Tendenz (hPa in 3 Std.)
So, 20.10. 4:30 1012 - 0,1
So, 20.10. 4:20 1012 keine Meldung
So, 20.10. 4:10 1012 keine Meldung
So, 20.10. 4:00 1012 - 0,3
So, 20.10. 3:50 1012 keine Meldung
So, 20.10. 3:40 1013 keine Meldung
So, 20.10. 3:30 1012 - 0,5
So, 20.10. 3:00 1013 - 0,7
Ortszeit Schneehöhe (cm)
So, 20.10. 2:00 -
Sa, 19.10. 20:00 -
Sa, 19.10. 14:00 -
Sa, 19.10. 8:00 -
Sa, 19.10. 2:00 -
Fr, 18.10. 20:00 -
Fr, 18.10. 14:00 -
Fr, 18.10. 8:00 -
Ortszeit Schneehöhe (cm)
So, 20.10. 4:30 -
So, 20.10. 4:20 -
So, 20.10. 4:10 -
So, 20.10. 4:00 -
So, 20.10. 3:50 -
So, 20.10. 3:40 -
So, 20.10. 3:30 -
So, 20.10. 3:00 -
Link zu dieser Seite / Seite empfehlen

Das Wetter in ...